Time;durP1;ratioP1;P1;durP2;ratioP2;P2;SDS_P1;SDS_P2;PMS_P1;PMS_P2;Temp;Humidity;BMP_temperature;BMP_pressure;BME280_temperature;BME280_humidity;BME280_pressure;Samples;Min_cycle;Max_cycle;Signal;HPM_P1;HPM_P2
2022/10/31 00:00:56;;;;;;;17.20;7.95;;;13.40;99.90;;;;;;6127786;19;19915;-70
2022/10/31 00:03:00;;;;;;;15.80;7.50;;;13.40;99.90;;;;;;6128771;19;19930;-70
2022/10/31 00:05:04;;;;;;;15.18;7.38;;;13.40;99.90;;;;;;6128858;19;19918;-70
2022/10/31 00:07:07;;;;;;;16.35;7.88;;;13.20;99.90;;;;;;6130180;19;19927;-70
2022/10/31 00:09:14;;;;;;;17.30;7.70;;;13.20;99.90;;;;;;6130077;19;19922;-70
2022/10/31 00:11:18;;;;;;;18.90;8.63;;;13.20;99.90;;;;;;6129610;19;19918;-70
2022/10/31 00:13:22;;;;;;;19.48;7.80;;;13.30;99.90;;;;;;6130906;19;19918;-70
2022/10/31 00:15:26;;;;;;;21.27;8.13;;;13.10;99.90;;;;;;6130524;19;19938;-70
2022/10/31 00:17:30;;;;;;;22.45;7.95;;;12.70;99.90;;;;;;6130239;19;19921;-70
2022/10/31 00:19:34;;;;;;;20.23;7.40;;;12.80;99.90;;;;;;6130433;19;20264;-70
2022/10/31 00:21:38;;;;;;;15.25;7.03;;;13.10;99.90;;;;;;6129330;19;19919;-70
2022/10/31 00:23:42;;;;;;;14.77;7.47;;;12.90;99.90;;;;;;6128451;19;20336;-70
2022/10/31 00:25:48;;;;;;;17.33;7.72;;;13.00;99.90;;;;;;6127869;19;19918;-71
2022/10/31 00:27:52;;;;;;;16.63;7.72;;;12.80;99.90;;;;;;6128009;19;20422;-70
2022/10/31 00:29:56;;;;;;;18.65;7.88;;;12.90;99.90;;;;;;6127686;19;19910;-70
2022/10/31 00:32:00;;;;;;;19.67;7.53;;;12.90;99.90;;;;;;6127166;19;19914;-70
2022/10/31 00:34:05;;;;;;;17.98;7.32;;;12.70;99.90;;;;;;6127895;19;19915;-70
2022/10/31 00:36:10;;;;;;;15.43;7.63;;;12.80;99.90;;;;;;6130304;19;19918;-70
2022/10/31 00:38:14;;;;;;;19.40;7.28;;;12.60;99.90;;;;;;6128132;19;19957;-70
2022/10/31 00:40:18;;;;;;;19.60;8.55;;;12.90;99.90;;;;;;6128009;19;19919;-70
2022/10/31 00:42:24;;;;;;;21.38;8.10;;;12.90;99.90;;;;;;6127443;19;20279;-70
2022/10/31 00:44:28;;;;;;;20.77;7.95;;;;;;;;;;6127582;19;19914;-70
2022/10/31 00:46:32;;;;;;;15.90;8.73;;;12.80;99.90;;;;;;6127209;19;20272;-70
2022/10/31 00:48:36;;;;;;;14.48;7.95;;;12.60;99.90;;;;;;6127670;19;19953;-70
2022/10/31 00:50:41;;;;;;;20.30;8.45;;;12.80;99.90;;;;;;6128865;19;19926;-70
2022/10/31 00:52:45;;;;;;;20.63;8.70;;;12.60;99.90;;;;;;6127558;19;19932;-71
2022/10/31 00:54:49;;;;;;;20.40;9.77;;;12.80;99.90;;;;;;6126804;19;19919;-70
2022/10/31 00:56:52;;;;;;;16.60;8.35;;;12.30;99.90;;;;;;6127450;19;19915;-70
2022/10/31 00:58:59;;;;;;;21.75;8.98;;;12.70;99.90;;;;;;6126496;19;19926;-70
2022/10/31 01:01:03;;;;;;;19.20;8.05;;;12.80;99.90;;;;;;6127054;19;19920;-70
2022/10/31 01:03:07;;;;;;;18.95;9.13;;;12.90;99.90;;;;;;6127796;19;19937;-71
2022/10/31 01:05:11;;;;;;;21.38;8.70;;;12.70;99.90;;;;;;6127171;19;20340;-70
2022/10/31 01:07:15;;;;;;;21.00;8.63;;;12.80;99.90;;;;;;6130034;19;19910;-70
2022/10/31 01:09:19;;;;;;;21.98;9.30;;;12.50;99.90;;;;;;6126834;19;19918;-70
2022/10/31 01:11:25;;;;;;;17.33;7.50;;;12.60;99.90;;;;;;6124848;19;19925;-70
2022/10/31 01:13:29;;;;;;;19.08;8.23;;;12.50;99.90;;;;;;6126654;19;19930;-70
2022/10/31 01:15:36;;;;;;;22.17;9.25;;;12.50;99.90;;;;;;6126974;19;19947;-70
2022/10/31 01:17:41;;;;;;;15.23;8.00;;;12.60;99.90;;;;;;6129214;19;19933;-70
2022/10/31 01:19:45;;;;;;;18.38;8.02;;;12.30;99.90;;;;;;6125856;19;19958;-71
2022/10/31 01:21:48;;;;;;;18.08;8.55;;;12.50;99.90;;;;;;6128143;19;19919;-71
2022/10/31 01:23:53;;;;;;;19.85;8.18;;;12.40;99.90;;;;;;6127931;19;19921;-70
2022/10/31 01:26:18;;;;;;;19.15;8.68;;;12.40;99.90;;;;;;6127326;19;20271;-70
2022/10/31 01:28:22;;;;;;;18.08;7.68;;;12.60;99.90;;;;;;6128012;19;19914;-70
2022/10/31 01:30:26;;;;;;;18.67;8.30;;;;;;;;;;6126040;19;19918;-70
2022/10/31 01:32:32;;;;;;;17.48;6.72;;;12.50;99.90;;;;;;6125671;19;19942;-70
2022/10/31 01:34:36;;;;;;;15.15;7.82;;;12.10;99.90;;;;;;6129941;19;20433;-70
2022/10/31 01:36:40;;;;;;;15.50;7.63;;;12.60;99.90;;;;;;6126327;19;20383;-70
2022/10/31 01:38:44;;;;;;;20.67;7.85;;;12.20;99.90;;;;;;6127404;19;20243;-71
2022/10/31 01:40:48;;;;;;;16.27;7.97;;;;;;;;;;6125665;19;19922;-71
2022/10/31 01:42:52;;;;;;;17.73;7.63;;;12.50;99.90;;;;;;6130106;19;19914;-70
2022/10/31 01:45:00;;;;;;;17.60;7.95;;;12.50;99.90;;;;;;6125909;19;20011;-70
2022/10/31 01:47:34;;;;;;;18.58;7.50;;;12.70;99.90;;;;;;6124727;19;19918;-70
2022/10/31 01:49:42;;;;;;;15.20;7.05;;;12.30;99.90;;;;;;6125365;19;19949;-70
2022/10/31 01:51:50;;;;;;;15.30;6.97;;;11.90;99.90;;;;;;6128467;19;19932;-70
2022/10/31 01:53:58;;;;;;;15.27;8.02;;;12.30;99.90;;;;;;6125707;19;20380;-70
2022/10/31 01:56:02;;;;;;;17.52;7.90;;;12.10;99.90;;;;;;6126344;19;20279;-70
2022/10/31 01:58:09;;;;;;;18.42;7.55;;;12.30;99.90;;;;;;6128216;19;19937;-71
2022/10/31 02:00:15;;;;;;;13.75;7.18;;;12.30;99.90;;;;;;6126471;19;19927;-70
2022/10/31 02:02:21;;;;;;;13.68;6.80;;;12.30;99.90;;;;;;6126172;19;19931;-70
2022/10/31 02:04:28;;;;;;;23.17;8.63;;;12.10;99.90;;;;;;6126436;19;19942;-71
2022/10/31 02:06:38;;;;;;;15.90;7.97;;;12.40;99.90;;;;;;6126360;19;19918;-70
2022/10/31 02:08:44;;;;;;;15.40;7.15;;;12.10;99.90;;;;;;6128677;19;20382;-70
2022/10/31 02:10:48;;;;;;;17.38;7.78;;;11.90;99.90;;;;;;6128313;19;19918;-70
2022/10/31 02:12:54;;;;;;;16.30;7.93;;;11.90;99.90;;;;;;6125160;19;19911;-70
2022/10/31 02:14:58;;;;;;;19.33;8.00;;;12.20;99.90;;;;;;6127255;19;19918;-70
2022/10/31 02:17:02;;;;;;;17.48;8.05;;;11.80;99.90;;;;;;6126240;19;20248;-70
2022/10/31 02:19:10;;;;;;;16.90;7.57;;;12.10;99.90;;;;;;6125285;19;19927;-70
2022/10/31 02:21:21;;;;;;;18.42;7.93;;;12.20;99.90;;;;;;6127333;19;19925;-70
2022/10/31 02:24:03;;;;;;;17.40;8.00;;;12.20;99.90;;;;;;6127479;19;19910;-70
2022/10/31 02:26:33;;;;;;;18.63;7.50;;;12.00;99.90;;;;;;6134544;19;19935;-70
2022/10/31 02:28:52;;;;;;;17.92;7.35;;;11.90;99.90;;;;;;6130414;19;19946;-70
2022/10/31 02:31:14;;;;;;;18.00;8.73;;;12.00;99.90;;;;;;6129617;19;19911;-70
2022/10/31 02:33:28;;;;;;;20.10;8.32;;;12.00;99.90;;;;;;6129856;19;19907;-70
2022/10/31 02:35:42;;;;;;;21.42;8.23;;;12.10;99.90;;;;;;6130984;19;19945;-69
2022/10/31 02:38:05;;;;;;;19.20;8.95;;;12.10;99.90;;;;;;6133390;19;19918;-70
2022/10/31 02:40:16;;;;;;;19.05;8.05;;;11.70;99.90;;;;;;6130450;19;19926;-70
2022/10/31 02:42:28;;;;;;;17.60;8.50;;;12.00;99.90;;;;;;6129992;19;19911;-70
2022/10/31 02:44:39;;;;;;;17.25;7.78;;;12.00;99.90;;;;;;6130198;19;20588;-70
2022/10/31 02:46:51;;;;;;;17.20;7.95;;;11.90;99.90;;;;;;6130171;19;19915;-70
2022/10/31 02:49:00;;;;;;;14.85;8.20;;;11.70;99.90;;;;;;6130738;19;19945;-71
2022/10/31 02:51:06;;;;;;;19.45;9.07;;;11.90;99.90;;;;;;6130282;19;20269;-70
2022/10/31 02:53:10;;;;;;;20.15;7.97;;;11.90;99.90;;;;;;6128329;19;20268;-70
2022/10/31 02:55:35;;;;;;;14.75;8.52;;;11.80;99.90;;;;;;6130015;19;19917;-70
2022/10/31 02:57:41;;;;;;;13.65;7.68;;;11.80;99.90;;;;;;6131641;19;19919;-70
2022/10/31 02:59:49;;;;;;;15.73;7.63;;;11.80;99.90;;;;;;6128506;19;19941;-70
2022/10/31 03:02:28;;;;;;;17.00;7.70;;;11.80;99.90;;;;;;6130023;19;19918;-70
2022/10/31 03:05:14;;;;;;;17.20;7.70;;;11.60;99.90;;;;;;6133073;19;19919;-70
2022/10/31 03:07:26;;;;;;;19.02;7.30;;;11.50;99.90;;;;;;6129556;19;19911;-70
2022/10/31 03:09:37;;;;;;;16.50;7.53;;;11.70;99.90;;;;;;6129409;19;19919;-70
2022/10/31 03:11:48;;;;;;;16.00;8.35;;;11.90;99.90;;;;;;6129444;19;19945;-70
2022/10/31 03:14:00;;;;;;;18.92;7.63;;;11.50;99.90;;;;;;6131384;19;20268;-70
2022/10/31 03:16:10;;;;;;;13.48;7.30;;;11.70;99.90;;;;;;6129629;19;19918;-70
2022/10/31 03:18:23;;;;;;;16.35;7.40;;;11.70;99.90;;;;;;6129580;19;19914;-70
2022/10/31 03:20:32;;;;;;;13.50;7.22;;;11.80;99.90;;;;;;6130288;19;19921;-70
2022/10/31 03:22:38;;;;;;;15.73;7.88;;;11.70;99.90;;;;;;6129163;19;19919;-70
2022/10/31 03:24:43;;;;;;;13.25;7.22;;;11.50;99.90;;;;;;6129525;19;19915;-70
2022/10/31 03:26:52;;;;;;;11.05;6.60;;;13.20;99.90;;;;;;6130004;19;19915;-70
2022/10/31 03:28:59;;;;;;;14.13;6.38;;;11.20;99.90;;;;;;6129499;19;19927;-70
2022/10/31 03:31:06;;;;;;;15.13;6.82;;;11.30;99.90;;;;;;6128313;19;20275;-70
2022/10/31 03:33:14;;;;;;;16.15;7.82;;;10.90;99.90;;;;;;6128625;19;19954;-70
2022/10/31 03:35:25;;;;;;;15.65;7.25;;;11.40;99.90;;;;;;6126857;19;19947;-70
2022/10/31 03:37:32;;;;;;;14.90;7.45;;;13.00;99.90;;;;;;6129552;19;19931;-70
2022/10/31 03:39:38;;;;;;;12.07;5.78;;;11.00;99.90;;;;;;6128809;19;20320;-70
2022/10/31 03:41:45;;;;;;;13.75;6.65;;;11.10;99.90;;;;;;6129211;19;19927;-70
2022/10/31 03:43:57;;;;;;;14.00;6.00;;;10.60;99.90;;;;;;6129059;19;19919;-70
2022/10/31 03:46:02;;;;;;;11.50;6.40;;;11.00;99.90;;;;;;6129265;19;19934;-70
2022/10/31 03:48:06;;;;;;;10.65;6.18;;;10.80;99.90;;;;;;6128893;19;19915;-70
2022/10/31 03:50:11;;;;;;;14.20;5.90;;;10.90;99.90;;;;;;6128685;19;19914;-70
2022/10/31 03:52:29;;;;;;;13.77;5.82;;;11.00;99.90;;;;;;6128270;19;19934;-70
2022/10/31 03:54:39;;;;;;;12.20;6.55;;;10.70;99.90;;;;;;6128858;19;19922;-70
2022/10/31 03:56:47;;;;;;;12.80;6.82;;;10.80;99.90;;;;;;6128708;19;19942;-70
2022/10/31 03:58:59;;;;;;;13.98;6.68;;;10.90;99.90;;;;;;6127976;19;19918;-70
2022/10/31 04:01:06;;;;;;;11.57;6.22;;;10.70;99.90;;;;;;6128793;19;20283;-70
2022/10/31 04:03:15;;;;;;;12.80;7.00;;;10.80;99.90;;;;;;6131076;19;19945;-70
2022/10/31 04:05:20;;;;;;;12.50;6.53;;;10.80;99.90;;;;;;6128607;19;19911;-70
2022/10/31 04:07:30;;;;;;;10.32;5.93;;;10.70;99.90;;;;;;6128328;19;19919;-70
2022/10/31 04:09:36;;;;;;;10.95;6.80;;;10.70;99.90;;;;;;6128286;19;19914;-70
2022/10/31 04:11:48;;;;;;;11.30;6.53;;;10.50;99.90;;;;;;6128274;19;19926;-70
2022/10/31 04:13:54;;;;;;;12.95;6.07;;;10.60;99.90;;;;;;6129033;19;19933;-70
2022/10/31 04:15:58;;;;;;;15.82;6.72;;;10.10;99.90;;;;;;6128453;19;19919;-70
2022/10/31 04:18:03;;;;;;;13.38;6.03;;;10.50;99.90;;;;;;6129256;19;19922;-70
2022/10/31 04:20:09;;;;;;;11.43;6.07;;;10.60;99.90;;;;;;6127543;19;19926;-70
2022/10/31 04:22:13;;;;;;;13.10;6.60;;;10.40;99.90;;;;;;6128274;19;19918;-70
2022/10/31 04:24:20;;;;;;;9.75;6.10;;;10.60;99.90;;;;;;6128386;19;19926;-70
2022/10/31 04:26:24;;;;;;;13.20;6.55;;;10.60;99.90;;;;;;6129782;19;19945;-70
2022/10/31 04:28:28;;;;;;;11.68;6.47;;;10.40;99.90;;;;;;6131179;19;19910;-70
2022/10/31 04:30:32;;;;;;;13.07;6.32;;;10.20;99.90;;;;;;6128876;19;19914;-70
2022/10/31 04:32:36;;;;;;;12.23;6.20;;;;;;;;;;6127084;19;19922;-70
2022/10/31 04:34:40;;;;;;;12.77;5.68;;;10.00;99.90;;;;;;6130445;19;19922;-70
2022/10/31 04:36:43;;;;;;;13.75;7.13;;;10.40;99.90;;;;;;6127575;19;19918;-70
2022/10/31 04:38:47;;;;;;;11.55;6.57;;;10.20;99.90;;;;;;6128448;19;19914;-70
2022/10/31 04:40:54;;;;;;;13.43;7.10;;;10.40;99.90;;;;;;6127647;19;19919;-70
2022/10/31 04:42:57;;;;;;;13.48;6.15;;;10.00;99.90;;;;;;6127609;19;20367;-70
2022/10/31 04:45:01;;;;;;;12.27;6.70;;;10.10;99.90;;;;;;6127719;19;20284;-70
2022/10/31 04:47:05;;;;;;;14.25;6.68;;;10.30;99.90;;;;;;6127082;19;19923;-70
2022/10/31 04:49:09;;;;;;;22.88;7.50;;;10.20;99.90;;;;;;6129049;19;19918;-70
2022/10/31 04:51:13;;;;;;;16.95;7.68;;;10.30;99.90;;;;;;6128183;19;19919;-70
2022/10/31 04:53:17;;;;;;;11.10;6.35;;;10.10;99.90;;;;;;6126505;19;19918;-70
2022/10/31 04:55:21;;;;;;;15.18;6.78;;;10.10;99.90;;;;;;6127116;19;20287;-70
2022/10/31 04:57:27;;;;;;;13.30;6.13;;;10.20;99.90;;;;;;6127671;19;19918;-70
2022/10/31 04:59:31;;;;;;;10.80;6.20;;;10.20;99.90;;;;;;6126340;19;19938;-70
2022/10/31 05:01:35;;;;;;;8.93;5.57;;;10.10;99.90;;;;;;6130114;19;20328;-70
2022/10/31 05:03:39;;;;;;;8.85;5.63;;;10.10;99.90;;;;;;6129537;19;20276;-70
2022/10/31 05:05:44;;;;;;;8.68;5.30;;;9.60;99.90;;;;;;6126962;19;19938;-70
2022/10/31 05:07:50;;;;;;;8.15;4.97;;;10.30;99.90;;;;;;6127487;19;19914;-69
2022/10/31 05:09:53;;;;;;;8.45;4.38;;;10.20;99.90;;;;;;6127292;19;19914;-70
2022/10/31 05:11:57;;;;;;;8.55;4.50;;;10.10;99.90;;;;;;6126964;19;20244;-70
2022/10/31 05:14:04;;;;;;;6.45;4.57;;;10.10;99.90;;;;;;6125368;19;19914;-70
2022/10/31 05:16:09;;;;;;;4.70;3.40;;;9.80;99.90;;;;;;6126142;19;20338;-70
2022/10/31 05:18:13;;;;;;;5.60;3.40;;;;;;;;;;6129576;19;19949;-70
2022/10/31 05:20:19;;;;;;;4.72;3.30;;;10.10;99.90;;;;;;6126699;19;19914;-70
2022/10/31 05:22:23;;;;;;;7.47;5.22;;;9.30;99.90;;;;;;6126407;19;19925;-70
2022/10/31 05:24:27;;;;;;;6.43;4.30;;;10.20;99.90;;;;;;6126331;19;19934;-70
2022/10/31 05:26:31;;;;;;;8.25;5.15;;;9.60;99.90;;;;;;6129592;19;19942;-70
2022/10/31 05:28:35;;;;;;;9.43;4.88;;;;;;;;;;6126473;19;19938;-69
2022/10/31 05:30:42;;;;;;;7.45;5.30;;;9.80;99.90;;;;;;6126610;19;20489;-70
2022/10/31 05:32:47;;;;;;;11.18;5.95;;;9.70;99.90;;;;;;6130223;19;19941;-70
2022/10/31 05:34:51;;;;;;;7.03;4.97;;;10.00;99.90;;;;;;6126187;19;20259;-70
2022/10/31 05:36:55;;;;;;;9.82;5.05;;;;;;;;;;6126595;19;19919;-70
2022/10/31 05:38:59;;;;;;;8.13;4.90;;;9.70;99.90;;;;;;6127644;19;19918;-70
2022/10/31 05:41:03;;;;;;;8.55;6.15;;;9.70;99.90;;;;;;6126124;19;19967;-70
2022/10/31 05:43:07;;;;;;;6.10;4.43;;;9.70;99.90;;;;;;6127510;19;19941;-70
2022/10/31 05:45:12;;;;;;;6.70;4.43;;;9.60;99.90;;;;;;6125692;19;20327;-69
2022/10/31 05:47:18;;;;;;;9.45;5.80;;;9.30;99.90;;;;;;6128783;19;19918;-70
2022/10/31 05:49:22;;;;;;;7.57;4.85;;;;;;;;;;6124939;19;19920;-69
2022/10/31 05:51:26;;;;;;;6.60;4.55;;;9.70;99.90;;;;;;6125648;19;19922;-70
2022/10/31 05:53:30;;;;;;;6.30;4.47;;;9.80;99.90;;;;;;6124729;19;19938;-70
2022/10/31 05:55:34;;;;;;;10.15;5.28;;;9.70;99.90;;;;;;6125580;19;19917;-70
2022/10/31 05:57:38;;;;;;;8.35;5.60;;;;;;;;;;6126188;19;19938;-70
2022/10/31 05:59:43;;;;;;;8.43;4.50;;;;;;;;;;6131576;19;19926;-70
2022/10/31 06:01:47;;;;;;;8.68;4.60;;;9.80;99.90;;;;;;6131930;19;19918;-69
2022/10/31 06:03:53;;;;;;;8.85;5.97;;;9.50;99.90;;;;;;6131155;19;20335;-70
2022/10/31 06:05:57;;;;;;;8.30;5.00;;;9.80;99.90;;;;;;6130995;19;19938;-70
2022/10/31 06:08:02;;;;;;;9.30;5.70;;;9.80;99.90;;;;;;6131558;19;20336;-70
2022/10/31 06:10:08;;;;;;;8.43;5.00;;;10.00;99.90;;;;;;6130899;19;19922;-70
2022/10/31 06:12:12;;;;;;;16.08;6.25;;;;;;;;;;6131198;19;20307;-70
2022/10/31 06:14:16;;;;;;;10.23;6.15;;;9.70;99.90;;;;;;6129200;19;19942;-70
2022/10/31 06:16:20;;;;;;;9.77;5.82;;;9.90;99.90;;;;;;6132169;19;19945;-70
2022/10/31 06:18:24;;;;;;;10.65;5.75;;;9.60;99.90;;;;;;6130776;19;19910;-69
2022/10/31 06:20:30;;;;;;;9.38;4.55;;;9.60;99.90;;;;;;6132046;19;20010;-70
2022/10/31 06:22:35;;;;;;;5.60;4.13;;;9.70;99.90;;;;;;6132502;19;19910;-70
2022/10/31 06:24:39;;;;;;;5.63;3.53;;;9.50;99.90;;;;;;6133119;19;19919;-70
2022/10/31 06:26:43;;;;;;;6.97;4.53;;;;;;;;;;6132796;19;19910;-69
2022/10/31 06:28:47;;;;;;;7.15;4.32;;;;;;;;;;6132483;19;19950;-74
2022/10/31 06:30:51;;;;;;;5.72;3.78;;;9.70;99.90;;;;;;6130076;19;19926;-70
2022/10/31 06:32:55;;;;;;;6.15;4.13;;;9.50;99.90;;;;;;6129270;19;19968;-70
2022/10/31 06:34:59;;;;;;;6.63;3.88;;;9.30;99.90;;;;;;6131598;19;19922;-70
2022/10/31 06:37:05;;;;;;;6.32;3.83;;;9.30;99.90;;;;;;6131921;19;19914;-70
2022/10/31 06:39:09;;;;;;;6.43;3.58;;;;;;;;;;6131788;19;20265;-70
2022/10/31 06:41:13;;;;;;;6.38;3.70;;;9.00;99.90;;;;;;6133362;19;19919;-70
2022/10/31 06:43:17;;;;;;;6.05;4.05;;;9.30;99.90;;;;;;6131179;19;19927;-69
2022/10/31 06:45:22;;;;;;;7.03;3.70;;;9.40;99.90;;;;;;6132549;19;19918;-73
2022/10/31 06:47:26;;;;;;;5.25;3.20;;;9.50;99.90;;;;;;6130464;19;20304;-76
2022/10/31 06:49:30;;;;;;;4.50;3.33;;;9.20;99.90;;;;;;6131795;19;19986;-75
2022/10/31 06:51:33;;;;;;;10.18;4.57;;;9.00;99.90;;;;;;6130171;19;19942;-75
2022/10/31 06:53:40;;;;;;;6.05;3.65;;;9.50;99.90;;;;;;6130939;19;19940;-77
2022/10/31 06:55:45;;;;;;;7.13;4.55;;;9.40;99.90;;;;;;6130191;19;19926;-76
2022/10/31 06:57:52;;;;;;;5.97;4.10;;;9.20;99.90;;;;;;6130840;19;19922;-74
2022/10/31 06:59:56;;;;;;;7.03;4.78;;;9.40;99.90;;;;;;6128186;19;19923;-77
2022/10/31 07:02:00;;;;;;;7.63;4.60;;;9.40;99.90;;;;;;6129694;19;19922;-78
2022/10/31 07:04:04;;;;;;;7.18;4.72;;;9.50;99.90;;;;;;6130208;19;19926;-78
2022/10/31 07:06:08;;;;;;;10.40;4.85;;;9.40;99.90;;;;;;6132653;19;19918;-78
2022/10/31 07:08:14;;;;;;;6.97;4.45;;;9.10;99.90;;;;;;6128981;19;19911;-78
2022/10/31 07:10:20;;;;;;;7.70;4.63;;;9.50;99.90;;;;;;6127241;19;19918;-75
2022/10/31 07:12:24;;;;;;;7.32;5.10;;;9.60;99.90;;;;;;6129948;19;20271;-76
2022/10/31 07:14:28;;;;;;;6.50;4.53;;;9.40;99.90;;;;;;6129451;19;19923;-73
2022/10/31 07:16:32;;;;;;;10.43;6.38;;;9.40;99.90;;;;;;6133073;19;19918;-73
2022/10/31 07:18:37;;;;;;;11.88;6.13;;;9.60;99.90;;;;;;6128640;19;20312;-73
2022/10/31 07:20:41;;;;;;;9.00;6.10;;;9.40;99.90;;;;;;6130912;19;19915;-72
2022/10/31 07:22:46;;;;;;;9.55;6.05;;;;;;;;;;6129030;19;19914;-73
2022/10/31 07:24:50;;;;;;;9.57;6.13;;;9.60;99.90;;;;;;6131786;19;19918;-73
2022/10/31 07:26:56;;;;;;;10.63;5.97;;;9.50;99.90;;;;;;6132234;19;20286;-72
2022/10/31 07:29:00;;;;;;;8.65;5.65;;;9.80;99.90;;;;;;6130964;19;19925;-72
2022/10/31 07:31:04;;;;;;;9.52;6.05;;;9.60;99.90;;;;;;6128752;19;19911;-72
2022/10/31 07:33:08;;;;;;;11.82;5.82;;;10.00;99.90;;;;;;6130309;19;19915;-73
2022/10/31 07:35:14;;;;;;;8.55;5.93;;;9.80;99.90;;;;;;6127335;19;19950;-72
2022/10/31 07:37:17;;;;;;;10.60;5.90;;;9.70;99.90;;;;;;6132564;19;19918;-72
2022/10/31 07:39:21;;;;;;;9.75;6.30;;;9.40;99.90;;;;;;6128739;19;19938;-72
2022/10/31 07:41:25;;;;;;;11.20;5.90;;;9.50;99.90;;;;;;6128944;19;19921;-72
2022/10/31 07:43:32;;;;;;;11.60;6.43;;;9.60;99.90;;;;;;6129417;19;19975;-72
2022/10/31 07:45:35;;;;;;;10.80;6.82;;;9.80;99.90;;;;;;6130299;19;19946;-72
2022/10/31 07:47:42;;;;;;;10.32;6.70;;;9.70;99.90;;;;;;6128470;19;19940;-72
2022/10/31 07:49:46;;;;;;;10.95;6.57;;;10.00;99.90;;;;;;6127682;19;19962;-71
2022/10/31 07:51:50;;;;;;;12.93;6.63;;;9.80;99.90;;;;;;6131414;19;20253;-72
2022/10/31 07:53:54;;;;;;;12.43;7.68;;;9.90;99.90;;;;;;6128084;19;20637;-72
2022/10/31 07:55:58;;;;;;;9.75;6.50;;;10.00;99.90;;;;;;6126217;19;19931;-73
2022/10/31 07:58:03;;;;;;;12.25;6.63;;;9.90;99.90;;;;;;6127020;19;20295;-71
2022/10/31 08:00:12;;;;;;;9.43;6.78;;;10.10;99.90;;;;;;6128536;19;19966;-72
2022/10/31 08:02:16;;;;;;;13.02;7.95;;;9.90;99.90;;;;;;6132139;19;19919;-73
2022/10/31 08:04:20;;;;;;;16.27;7.40;;;10.10;99.90;;;;;;6132290;19;20347;-73
2022/10/31 08:06:24;;;;;;;19.90;7.90;;;;;;;;;;6131289;19;19918;-73
2022/10/31 08:08:29;;;;;;;16.98;7.13;;;10.00;99.90;;;;;;6130384;19;19923;-72
2022/10/31 08:10:34;;;;;;;15.07;7.13;;;10.00;99.90;;;;;;6132695;19;19935;-72
2022/10/31 08:12:38;;;;;;;23.92;8.48;;;10.00;99.90;;;;;;6128874;19;19950;-71
2022/10/31 08:14:41;;;;;;;21.10;6.68;;;10.10;99.90;;;;;;6126924;19;19910;-72
2022/10/31 08:16:48;;;;;;;34.22;6.72;;;11.50;99.90;;;;;;6127976;19;19915;-72
2022/10/31 08:18:53;;;;;;;14.95;6.70;;;9.80;99.90;;;;;;6130615;19;20578;-72
2022/10/31 08:20:57;;;;;;;21.88;6.55;;;9.90;99.90;;;;;;6128086;19;19937;-72
2022/10/31 08:23:03;;;;;;;18.40;6.70;;;9.90;99.90;;;;;;6127856;19;20355;-72
2022/10/31 08:25:11;;;;;;;28.35;7.13;;;10.20;99.90;;;;;;6128192;19;20003;-72
2022/10/31 08:27:14;;;;;;;11.77;7.07;;;9.90;99.90;;;;;;6126987;19;19926;-72
2022/10/31 08:29:19;;;;;;;12.30;6.03;;;10.00;99.90;;;;;;6130450;19;19982;-71
2022/10/31 08:31:22;;;;;;;10.40;6.25;;;10.30;99.90;;;;;;6127362;19;19915;-72
2022/10/31 08:33:29;;;;;;;8.85;5.65;;;10.10;99.90;;;;;;6128219;19;19923;-73
2022/10/31 08:35:34;;;;;;;9.18;6.45;;;10.10;99.90;;;;;;6125869;19;19918;-72
2022/10/31 08:37:38;;;;;;;12.70;6.03;;;;;;;;;;6130152;19;19938;-71
2022/10/31 08:39:42;;;;;;;10.70;6.90;;;10.30;99.90;;;;;;6130237;19;20275;-72
2022/10/31 08:41:46;;;;;;;16.92;6.55;;;;;;;;;;6129900;19;19919;-72
2022/10/31 08:43:50;;;;;;;10.07;7.00;;;10.20;99.90;;;;;;6129482;19;20264;-73
2022/10/31 08:45:54;;;;;;;27.27;7.07;;;;;;;;;;6129858;19;19929;-73
2022/10/31 08:48:02;;;;;;;14.68;7.78;;;10.10;99.90;;;;;;6128969;19;20255;-73
2022/10/31 08:50:09;;;;;;;13.35;8.05;;;10.30;99.90;;;;;;6128460;19;19925;-72
2022/10/31 08:52:14;;;;;;;13.20;7.95;;;10.50;99.90;;;;;;6126539;19;20343;-73
2022/10/31 08:54:18;;;;;;;11.02;6.88;;;10.50;99.90;;;;;;6126735;19;19922;-73
2022/10/31 08:56:22;;;;;;;12.27;8.55;;;10.40;99.90;;;;;;6131171;19;19910;-73
2022/10/31 08:58:27;;;;;;;20.30;8.50;;;10.40;99.90;;;;;;6129055;19;19919;-73
2022/10/31 09:00:30;;;;;;;12.77;8.60;;;10.40;99.90;;;;;;6130259;19;19922;-73
2022/10/31 09:02:35;;;;;;;10.82;8.18;;;;;;;;;;6127291;19;19918;-73
2022/10/31 09:04:38;;;;;;;13.43;8.57;;;9.90;99.90;;;;;;6128088;19;20034;-73
2022/10/31 09:06:45;;;;;;;13.75;9.20;;;10.70;99.90;;;;;;6127285;19;19914;-73
2022/10/31 09:08:49;;;;;;;18.48;9.25;;;10.50;99.90;;;;;;6129859;19;19978;-71
2022/10/31 09:10:53;;;;;;;15.55;8.82;;;10.70;99.90;;;;;;6128365;19;19910;-71
2022/10/31 09:13:01;;;;;;;14.00;10.18;;;10.90;99.90;;;;;;6127969;19;20268;-71
2022/10/31 09:15:06;;;;;;;16.65;10.60;;;;;;;;;;6125992;19;20288;-71
2022/10/31 09:17:10;;;;;;;16.52;9.45;;;;;;;;;;6126357;19;19929;-71
2022/10/31 09:19:14;;;;;;;16.63;9.75;;;;;;;;;;6128799;19;20276;-71
2022/10/31 09:21:18;;;;;;;17.08;9.88;;;11.40;99.90;;;;;;6126363;19;19923;-71
2022/10/31 09:23:25;;;;;;;16.08;9.27;;;10.90;99.90;;;;;;6126500;19;19914;-71
2022/10/31 09:25:30;;;;;;;24.23;9.90;;;11.30;99.90;;;;;;6126680;19;19918;-71
2022/10/31 09:27:34;;;;;;;17.75;10.25;;;11.60;99.90;;;;;;6125989;19;20348;-72
2022/10/31 09:29:38;;;;;;;17.30;8.90;;;11.20;99.90;;;;;;6126226;19;19919;-71
2022/10/31 09:31:42;;;;;;;16.42;10.25;;;11.40;99.90;;;;;;6126668;19;19922;-72
2022/10/31 09:33:46;;;;;;;20.42;11.32;;;11.90;99.90;;;;;;6131590;19;19936;-73
2022/10/31 09:35:50;;;;;;;18.90;9.43;;;11.70;99.90;;;;;;6129286;19;19921;-72
2022/10/31 09:37:57;;;;;;;19.27;9.90;;;11.80;99.90;;;;;;6132743;19;19925;-72
2022/10/31 09:40:03;;;;;;;17.92;10.40;;;11.90;99.90;;;;;;6130397;19;19926;-72
2022/10/31 09:42:40;;;;;;;17.55;10.38;;;11.80;99.90;;;;;;6130894;19;19946;-72
2022/10/31 09:44:52;;;;;;;16.85;9.70;;;12.20;99.90;;;;;;6131598;19;19914;-73
2022/10/31 09:47:03;;;;;;;18.48;10.07;;;11.90;99.90;;;;;;6131732;19;19921;-73
2022/10/31 09:49:34;;;;;;;17.73;9.75;;;12.10;99.90;;;;;;6130588;19;20257;-73
2022/10/31 09:51:42;;;;;;;17.02;9.95;;;12.00;99.90;;;;;;6132809;19;19918;-73
2022/10/31 09:53:50;;;;;;;16.75;10.13;;;12.30;99.90;;;;;;6132008;19;19918;-73
2022/10/31 09:55:57;;;;;;;15.88;10.18;;;12.70;99.90;;;;;;6132134;19;19914;-73
2022/10/31 09:58:03;;;;;;;15.85;9.82;;;12.50;99.90;;;;;;6131699;19;19915;-73
2022/10/31 10:00:09;;;;;;;16.48;10.15;;;12.60;99.90;;;;;;6128659;19;20359;-73
2022/10/31 10:02:19;;;;;;;17.35;9.50;;;12.60;99.90;;;;;;6131184;19;19911;-73
2022/10/31 10:04:37;;;;;;;15.32;9.80;;;12.70;99.90;;;;;;6133248;19;19919;-73
2022/10/31 10:06:47;;;;;;;17.38;9.98;;;12.80;99.90;;;;;;6131158;19;19922;-73
2022/10/31 10:08:51;;;;;;;15.82;9.45;;;13.00;99.90;;;;;;6131286;19;19964;-73
2022/10/31 10:11:06;;;;;;;14.88;8.85;;;12.40;99.90;;;;;;6130686;19;19979;-73
2022/10/31 10:13:38;;;;;;;17.08;9.32;;;13.10;99.90;;;;;;6131774;19;19933;-73
2022/10/31 10:16:05;;;;;;;18.02;9.73;;;13.00;99.90;;;;;;6130594;19;19949;-73
2022/10/31 10:18:18;;;;;;;15.43;8.77;;;13.10;99.90;;;;;;6131443;19;20252;-73
2022/10/31 10:20:30;;;;;;;16.30;8.88;;;13.20;99.90;;;;;;6130791;19;19911;-73
2022/10/31 10:22:43;;;;;;;15.63;8.02;;;13.00;99.90;;;;;;6131807;19;19918;-73
2022/10/31 10:25:06;;;;;;;13.65;8.60;;;13.60;99.90;;;;;;6130814;19;19919;-73
2022/10/31 10:27:22;;;;;;;15.55;8.50;;;13.50;99.90;;;;;;6130507;19;19910;-73
2022/10/31 10:29:35;;;;;;;17.48;8.68;;;13.80;99.90;;;;;;6131049;19;19926;-73
2022/10/31 10:31:42;;;;;;;16.58;9.02;;;13.80;99.90;;;;;;6132786;19;19949;-73
2022/10/31 10:33:55;;;;;;;15.55;8.40;;;13.70;99.90;;;;;;6130417;19;19918;-73
2022/10/31 10:36:02;;;;;;;14.75;8.20;;;13.50;99.90;;;;;;6128561;19;19918;-73
2022/10/31 10:38:16;;;;;;;17.50;8.77;;;13.30;99.90;;;;;;6133231;19;20261;-73
2022/10/31 10:40:23;;;;;;;16.92;8.07;;;13.60;99.90;;;;;;6129013;19;19915;-73
2022/10/31 10:49:32;;;;;;;16.25;8.65;;;13.60;99.90;;;;;;6129282;19;20252;-73
2022/10/31 10:51:41;;;;;;;17.95;9.13;;;13.40;99.90;;;;;;6130063;19;19925;-73
2022/10/31 10:54:03;;;;;;;13.18;8.02;;;13.70;99.90;;;;;;6129972;19;20597;-74
2022/10/31 10:56:17;;;;;;;16.38;8.13;;;14.40;99.90;;;;;;6128302;19;19910;-73
2022/10/31 10:58:24;;;;;;;17.75;8.98;;;13.90;99.90;;;;;;6131645;19;19919;-73
2022/10/31 11:00:32;;;;;;;15.13;8.57;;;14.30;99.90;;;;;;6127742;19;19919;-73
2022/10/31 11:02:36;;;;;;;17.27;9.07;;;14.40;99.90;;;;;;6129971;19;19922;-73
2022/10/31 11:04:43;;;;;;;13.77;7.80;;;14.20;99.90;;;;;;6130107;19;20263;-73
2022/10/31 11:06:47;;;;;;;14.93;8.07;;;14.10;99.90;;;;;;6132099;19;20336;-73
2022/10/31 11:08:51;;;;;;;15.07;8.00;;;14.20;99.90;;;;;;6130358;19;20236;-73